Frpd 309 — CFN7067 — position and weather

sailwx.info

Track history (hours):
 
Tides and Currents Weather Stations Pressure Air Temp Water Temp Dewpoint Dewpoint Depression Visibility Wind Speed Wind Dir Waves Ship Positions

Frpd 309

Last reported at 2018-Jun-25 05:59 UTC. Time now 2018-Jun-25 06:14 UTC.
Position N 49°11' W 122°55'.

Length 124 m; draft 6.9 m.

Type: Dredging. MMSI: 316029591.

Date/timePositionNaut miles runAvg speedWind from/ knotsBaromVisibWave heightAir tempDewpointWater temp
2018-Jun-25 05:59N 49°11' W 122°55'0 0.3
2018-Jun-25 05:31N 49°11' W 122°55'0 0.2
2018-Jun-25 05:01N 49°11' W 122°55'0 0.6
2018-Jun-25 04:30N 49°11' W 122°55'0 0.3
2018-Jun-25 04:00N 49°11' W 122°55'0 0.4
2018-Jun-25 03:30N 49°11' W 122°55'0 0.2
2018-Jun-25 03:00N 49°11' W 122°55'1 1.2
2018-Jun-25 02:30N 49°11' W 122°55'0 0.8
2018-Jun-25 02:00N 49°11' W 122°55'0 0.1
2018-Jun-25 01:31N 49°11' W 122°55'0 0.4
2018-Jun-25 01:00N 49°11' W 122°55'0 0.5
2018-Jun-25 00:30N 49°11' W 122°55'0 0.1
2018-Jun-25 00:00N 49°11' W 122°55'0 0.2
2018-Jun-24 23:31N 49°11' W 122°55'0 0.3
2018-Jun-24 23:00N 49°11' W 122°55'0 0.7
2018-Jun-24 22:29N 49°11' W 122°55'0 0.5
2018-Jun-24 22:00N 49°11' W 122°55'0 0.2
2018-Jun-24 21:30N 49°11' W 122°55'0 1.0
2018-Jun-24 21:01N 49°11' W 122°55'0 0.3
2018-Jun-24 20:30N 49°11' W 122°55'0 0.0
2018-Jun-24 20:00N 49°11' W 122°55'0 0.3
2018-Jun-24 19:30N 49°11' W 122°55'0 0.6
2018-Jun-24 19:00N 49°11' W 122°55'0 0.1
2018-Jun-24 18:30N 49°11' W 122°55'0 0.1
2018-Jun-24 18:00N 49°11' W 122°55'0 0.6
2018-Jun-24 17:30N 49°11' W 122°55'0 0.2
2018-Jun-24 17:00N 49°11' W 122°55'0 0.3
2018-Jun-24 16:30N 49°11' W 122°55'0 0.9
2018-Jun-24 16:00N 49°11' W 122°55'1 1.3
2018-Jun-24 15:31N 49°11' W 122°55'1 1.0
2018-Jun-24 15:00N 49°11' W 122°55'0 0.2
2018-Jun-24 14:30N 49°11' W 122°55'0 0.7
2018-Jun-24 14:01N 49°11' W 122°55'0 0.2
2018-Jun-24 13:30N 49°11' W 122°55'0 0.5
2018-Jun-24 13:00N 49°11' W 122°55'0 0.3
2018-Jun-24 12:30N 49°11' W 122°55'0 0.9
2018-Jun-24 12:00N 49°11' W 122°55'0 0.5
2018-Jun-24 11:30N 49°11' W 122°55'4 8.2
2018-Jun-24 11:00N 49°09' W 123°01'1 2.7
2018-Jun-24 10:29N 49°09' W 123°03'0 0.0
2018-Jun-24 10:00N 49°09' W 123°03'0 0.0
2018-Jun-24 09:30N 49°09' W 123°03'0 0.0
2018-Jun-24 09:00N 49°09' W 123°03'1 1.7
2018-Jun-24 08:31N 49°08' W 123°04'5 9.3
2018-Jun-24 07:58N 49°07' W 123°11'0 0.6
2018-Jun-24 07:30N 49°07' W 123°12'0 0.2
2018-Jun-24 07:00N 49°07' W 123°12'4 9.0
2018-Jun-24 06:30N 49°07' W 123°05'2 3.9
2018-Jun-24 06:00N 49°09' W 123°03'0 0.0
2018-Jun-24 05:30N 49°09' W 123°03'0 0.0
2018-Jun-24 05:00N 49°09' W 123°03'0 0.0
2018-Jun-24 04:30N 49°09' W 123°03'0 0.0
2018-Jun-24 04:00N 49°09' W 123°03'1 2.4
2018-Jun-24 03:30N 49°08' W 123°04'4 8.6
2018-Jun-24 03:00N 49°07' W 123°11'1 1.4
2018-Jun-24 02:30N 49°07' W 123°12'0 0.2
2018-Jun-24 02:00N 49°07' W 123°11'1 2.2
2018-Jun-24 01:30N 49°07' W 123°10'510.1
2018-Jun-24 01:00N 49°09' W 123°03'0 0.1
2018-Jun-24 00:30N 49°09' W 123°03'0 0.0
2018-Jun-24 00:00N 49°09' W 123°03'0 0.0
2018-Jun-23 23:31N 49°09' W 123°03'1 1.6
2018-Jun-23 22:58N 49°08' W 123°04'4 9.3
2018-Jun-23 22:29N 49°07' W 123°10'1 1.7
2018-Jun-23 22:00N 49°07' W 123°11'1 1.7
2018-Jun-23 21:27N 49°07' W 123°10'511.0
2018-Jun-23 21:00N 49°08' W 123°03'0 0.6
2018-Jun-23 20:31N 49°09' W 123°03'0 0.0
2018-Jun-23 20:00N 49°09' W 123°03'0 0.0
2018-Jun-23 19:30N 49°09' W 123°03'0 0.3
2018-Jun-23 19:00N 49°09' W 123°03'4 7.9
2018-Jun-23 18:30N 49°06' W 123°08'2 4.1
2018-Jun-23 17:59N 49°07' W 123°11'0 1.0
2018-Jun-23 17:30N 49°07' W 123°11'1 1.3
2018-Jun-23 17:00N 49°07' W 123°12'3 5.1
2018-Jun-23 16:28N 49°06' W 123°08'4 8.1
2018-Jun-23 16:00N 49°09' W 123°03'0 0.1
2018-Jun-23 15:28N 49°09' W 123°03'0 0.0
2018-Jun-23 15:00N 49°09' W 123°03'0 0.0
2018-Jun-23 14:30N 49°09' W 123°03'0 0.4
2018-Jun-23 14:01N 49°08' W 123°03'4 7.7
2018-Jun-23 13:30N 49°06' W 123°08'2 3.7
2018-Jun-23 13:01N 49°07' W 123°11'0 0.3
2018-Jun-23 12:29N 49°07' W 123°11'1 1.7
2018-Jun-23 12:00N 49°07' W 123°12'510.3
2018-Jun-23 11:30N 49°08' W 123°04'1 2.6
2018-Jun-23 11:00N 49°09' W 123°03'0 0.0
2018-Jun-23 10:30N 49°09' W 123°03'0 0.0
2018-Jun-23 10:00N 49°09' W 123°03'0 0.0
2018-Jun-23 09:30N 49°09' W 123°03'3 6.5
2018-Jun-23 08:59N 49°07' W 123°07'3 6.0
2018-Jun-23 08:29N 49°07' W 123°12'0 0.7
2018-Jun-23 07:59N 49°07' W 123°11'4 7.9
2018-Jun-23 07:30N 49°07' W 123°05'2 4.5
2018-Jun-23 07:00N 49°09' W 123°03'0 0.0
2018-Jun-23 06:30N 49°09' W 123°03'0 0.0
2018-Jun-23 06:00N 49°09' W 123°03'0 0.0
2018-Jun-23 05:30N 49°09' W 123°03'0 0.0
2018-Jun-23 05:00N 49°09' W 123°03'4 7.5
2018-Jun-23 04:31N 49°07' W 123°08'2 4.8
2018-Jun-23 04:00N 49°07' W 123°11'0 0.4
2018-Jun-23 03:30N 49°07' W 123°11'1 1.7
2018-Jun-23 03:00N 49°07' W 123°12'510.5
2018-Jun-23 02:30N 49°08' W 123°04'1 2.2
2018-Jun-23 02:00N 49°09' W 123°03'0 0.0
2018-Jun-23 01:30N 49°09' W 123°03'0 0.0
2018-Jun-23 01:00N 49°09' W 123°03'0 0.0
2018-Jun-23 00:30N 49°09' W 123°03'1 1.2
2018-Jun-23 00:00N 49°08' W 123°03'4 9.1
2018-Jun-22 23:30N 49°07' W 123°10'1 2.3
2018-Jun-22 22:59N 49°07' W 123°12'0 0.1
2018-Jun-22 22:29N 49°07' W 123°12'4 8.3
2018-Jun-22 22:00N 49°07' W 123°05'2 4.6
2018-Jun-22 21:30N 49°09' W 123°03'0 0.0
2018-Jun-22 21:00N 49°09' W 123°03'0 0.0
2018-Jun-22 20:28N 49°09' W 123°03'0 0.0
2018-Jun-22 20:00N 49°09' W 123°03'1 1.3
2018-Jun-22 19:30N 49°08' W 123°04'5 8.7
2018-Jun-22 18:57N 49°07' W 123°11'1 1.5
2018-Jun-22 18:30N 49°07' W 123°12'0 0.7
2018-Jun-22 17:59N 49°07' W 123°11'1 1.8
2018-Jun-22 17:30N 49°07' W 123°12'510.1
2018-Jun-22 17:00N 49°07' W 123°05'2 3.2
2018-Jun-22 16:30N 49°09' W 123°03'0 0.0
2018-Jun-22 16:00N 49°09' W 123°03'0 0.0
2018-Jun-22 15:30N 49°09' W 123°03'0 0.0
2018-Jun-22 14:59N 49°09' W 123°03'2 4.7
2018-Jun-22 14:30N 49°07' W 123°05'3 7.1
2018-Jun-22 14:00N 49°07' W 123°11'1 1.5
2018-Jun-22 13:29N 49°07' W 123°12'0 1.0
2018-Jun-22 13:00N 49°07' W 123°11'2 3.9
2018-Jun-22 12:29N 49°06' W 123°08'4 8.5
2018-Jun-22 12:00N 49°09' W 123°03'0 0.0
2018-Jun-22 11:30N 49°09' W 123°03'0 0.0
2018-Jun-22 11:01N 49°09' W 123°03'0 0.0
2018-Jun-22 10:30N 49°09' W 123°03'3 6.3
2018-Jun-22 10:00N 49°07' W 123°07'3 5.8
2018-Jun-22 09:30N 49°07' W 123°11'0 0.7
2018-Jun-22 08:59N 49°07' W 123°12'611.3
2018-Jun-22 08:29N 49°08' W 123°03'0 0.7
2018-Jun-22 08:00N 49°09' W 123°03'0 0.0
2018-Jun-22 07:30N 49°09' W 123°03'0 0.0
2018-Jun-22 07:00N 49°09' W 123°03'0 0.0
2018-Jun-22 06:30N 49°09' W 123°03'2 4.7
2018-Jun-22 06:00N 49°07' W 123°05'4 7.1
2018-Jun-22 05:30N 49°07' W 123°11'0 0.9
2018-Jun-22 05:00N 49°07' W 123°12'3 6.5
2018-Jun-22 04:30N 49°07' W 123°07'3 6.3
2018-Jun-22 04:00N 49°09' W 123°03'0 0.0
2018-Jun-22 03:28N 49°09' W 123°03'0 0.0
2018-Jun-22 03:00N 49°09' W 123°03'0 0.0
2018-Jun-22 02:30N 49°09' W 123°03'0 0.5
2018-Jun-22 02:00N 49°08' W 123°03'4 8.3
2018-Jun-22 01:30N 49°07' W 123°09'2 3.1
2018-Jun-22 01:00N 49°07' W 123°11'0 0.3
2018-Jun-22 00:30N 49°07' W 123°11'0 0.2
2018-Jun-22 00:00N 49°07' W 123°11'611.0
2018-Jun-21 23:30N 49°09' W 123°03'0 0.2
2018-Jun-21 23:01N 49°09' W 123°03'0 0.0
2018-Jun-21 22:31N 49°09' W 123°03'0 0.1
2018-Jun-21 22:00N 49°09' W 123°03'1 2.7
2018-Jun-21 21:30N 49°08' W 123°04'4 8.6
2018-Jun-21 21:00N 49°07' W 123°11'0 0.2
2018-Jun-21 20:30N 49°07' W 123°11'1 1.2
2018-Jun-21 20:00N 49°07' W 123°12'4 9.2
2018-Jun-21 19:31N 49°07' W 123°05'2 3.5
2018-Jun-21 19:00N 49°09' W 123°03'0 0.0
2018-Jun-21 18:31N 49°09' W 123°03'0 0.0
2018-Jun-21 18:00N 49°09' W 123°03'0 0.0
2018-Jun-21 17:30N 49°09' W 123°03'2 4.8
2018-Jun-21 17:00N 49°07' W 123°06'4 6.9
2018-Jun-21 16:30N 49°07' W 123°11'0 0.1
2018-Jun-21 15:58N 49°07' W 123°11'0 0.7
2018-Jun-21 15:30N 49°07' W 123°12'4 7.2
2018-Jun-21 14:59N 49°07' W 123°06'3 5.5
2018-Jun-21 14:30N 49°09' W 123°03'0 0.0
2018-Jun-21 14:00N 49°09' W 123°03'0 0.0
2018-Jun-21 13:30N 49°09' W 123°03'0 0.0
2018-Jun-21 13:00N 49°09' W 123°03'1 2.9
2018-Jun-21 12:30N 49°07' W 123°04'4 7.8
2018-Jun-21 12:00N 49°07' W 123°10'1 1.7
2018-Jun-21 11:30N 49°07' W 123°11'0 0.2
2018-Jun-21 11:00N 49°07' W 123°11'3 6.0
2018-Jun-21 10:30N 49°07' W 123°07'3 6.2
2018-Jun-21 10:00N 49°09' W 123°03'0 0.0
2018-Jun-21 09:29N 49°09' W 123°03'0 0.0
2018-Jun-21 09:00N 49°09' W 123°03'0 0.0
2018-Jun-21 08:30N 49°09' W 123°03'3 5.4
2018-Jun-21 08:00N 49°07' W 123°06'4 6.9
2018-Jun-21 07:29N 49°07' W 123°11'1 1.3
2018-Jun-21 07:00N 49°07' W 123°11'5 9.3
2018-Jun-21 06:30N 49°08' W 123°04'1 1.3
2018-Jun-21 05:59N 49°09' W 123°03'0 0.0
2018-Jun-21 05:29N 49°09' W 123°03'0 0.0
2018-Jun-21 05:00N 49°09' W 123°03'0 0.0
2018-Jun-21 04:30N 49°09' W 123°03'0 0.4
2018-Jun-21 04:00N 49°08' W 123°03'4 8.6
2018-Jun-21 03:29N 49°07' W 123°09'1 2.8
2018-Jun-21 03:00N 49°07' W 123°11'0 0.5
2018-Jun-21 02:30N 49°07' W 123°11'1 1.8
2018-Jun-21 02:00N 49°07' W 123°12'510.6
2018-Jun-21 01:30N 49°08' W 123°04'1 1.9
2018-Jun-21 01:00N 49°09' W 123°03'0 0.0
2018-Jun-21 00:30N 49°09' W 123°03'0 0.1
2018-Jun-20 23:59N 49°09' W 123°03'0 0.1
2018-Jun-20 23:30N 49°09' W 123°03'2 4.3
2018-Jun-20 23:00N 49°07' W 123°05'4 7.2
2018-Jun-20 22:30N 49°07' W 123°11'0 0.9
2018-Jun-20 22:00N 49°07' W 123°11'0 0.5
2018-Jun-20 21:29N 49°07' W 123°12'4 7.6
2018-Jun-20 21:00N 49°07' W 123°06'3 5.4
2018-Jun-20 20:30N 49°09' W 123°03'0 0.1
2018-Jun-20 20:00N 49°09' W 123°03'0 0.0
2018-Jun-20 19:30N 49°09' W 123°03'0 0.0
2018-Jun-20 19:00N 49°09' W 123°03'0 0.0
2018-Jun-20 18:30N 49°09' W 123°03'4 8.2
2018-Jun-20 18:00N 49°06' W 123°08'2 4.0
2018-Jun-20 17:30N 49°07' W 123°11'0 0.0
2018-Jun-20 16:59N 49°07' W 123°11'611.6
2018-Jun-20 16:29N 49°09' W 123°03'0 0.3
2018-Jun-20 16:00N 49°09' W 123°03'0 0.1
2018-Jun-20 15:29N 49°09' W 123°03'0 0.0
2018-Jun-20 15:00N 49°09' W 123°03'0 0.0
2018-Jun-20 14:30N 49°09' W 123°03'0 0.0
2018-Jun-20 14:00N 49°09' W 123°03'2 4.1
2018-Jun-20 13:30N 49°07' W 123°05'4 7.4
2018-Jun-20 13:00N 49°07' W 123°11'0 0.9
2018-Jun-20 12:30N 49°07' W 123°11'0 0.1
2018-Jun-20 12:00N 49°07' W 123°11'1 1.6
2018-Jun-20 11:30N 49°07' W 123°10'510.0
2018-Jun-20 11:00N 49°09' W 123°03'0 0.0
2018-Jun-20 10:30N 49°09' W 123°03'0 0.0
2018-Jun-20 10:00N 49°09' W 123°03'0 0.0
2018-Jun-20 09:30N 49°09' W 123°03'0 0.8
2018-Jun-20 09:00N 49°08' W 123°03'5 9.2
2018-Jun-20 08:29N 49°07' W 123°10'1 1.4
2018-Jun-20 08:00N 49°07' W 123°11'0 0.8
2018-Jun-20 07:30N 49°07' W 123°12'4 7.6
2018-Jun-20 07:00N 49°07' W 123°06'2 4.6
2018-Jun-20 06:27N 49°09' W 123°03'0 0.0
2018-Jun-20 06:00N 49°09' W 123°03'0 0.0
2018-Jun-20 05:30N 49°09' W 123°03'0 0.0
2018-Jun-20 05:00N 49°09' W 123°03'0 0.2
2018-Jun-20 04:30N 49°09' W 123°03'5 9.1
2018-Jun-20 04:00N 49°07' W 123°09'1 2.9
2018-Jun-20 03:30N 49°07' W 123°11'1 2.4
2018-Jun-20 03:00N 49°07' W 123°10'5 9.9
2018-Jun-20 02:30N 49°09' W 123°03'0 0.2
2018-Jun-20 02:00N 49°09' W 123°03'0 0.0
2018-Jun-20 01:30N 49°09' W 123°03'0 0.0
2018-Jun-20 01:00N 49°09' W 123°03'0 0.0
2018-Jun-20 00:30N 49°09' W 123°03'0 0.1
2018-Jun-20 00:00N 49°09' W 123°03'4 6.8
2018-Jun-19 23:29N 49°07' W 123°07'2 4.9
2018-Jun-19 23:00N 49°07' W 123°11'0 0.4
2018-Jun-19 22:29N 49°07' W 123°11'1 1.1
2018-Jun-19 22:00N 49°07' W 123°11'1 1.7
2018-Jun-19 21:30N 49°07' W 123°10'4 8.6
2018-Jun-19 21:00N 49°08' W 123°04'1 1.3
2018-Jun-19 20:30N 49°08' W 123°03'0 0.5
2018-Jun-19 20:00N 49°09' W 123°03'0 0.8
2018-Jun-19 19:30N 49°08' W 123°03'0 1.0
2018-Jun-19 19:00N 49°09' W 123°03'0 0.0
2018-Jun-19 18:30N 49°09' W 123°03'0 0.0
2018-Jun-19 18:00N 49°09' W 123°03'0 0.0
2018-Jun-19 17:30N 49°09' W 123°03'0 0.0
2018-Jun-19 17:00N 49°09' W 123°03'0 0.2
2018-Jun-19 16:30N 49°09' W 123°03'510.4
2018-Jun-19 16:00N 49°10' W 122°56'1 1.4
2018-Jun-19 15:30N 49°11' W 122°55'0 0.2
2018-Jun-19 15:00N 49°11' W 122°55'0 0.6
2018-Jun-19 14:30N 49°11' W 122°55'0 0.6
2018-Jun-19 14:00N 49°11' W 122°55'0 0.0
2018-Jun-19 13:30N 49°11' W 122°55'0 0.2
2018-Jun-19 13:00N 49°11' W 122°55'0 0.2
2018-Jun-19 12:30N 49°11' W 122°55'0 0.1
2018-Jun-19 12:00N 49°11' W 122°55'0 0.2
2018-Jun-19 11:30N 49°11' W 122°55'0 0.6
2018-Jun-19 11:00N 49°12' W 122°55'0 0.7
2018-Jun-19 10:30N 49°11' W 122°55'0 0.6
2018-Jun-19 10:00N 49°11' W 122°55'0 0.7
2018-Jun-19 09:30N 49°11' W 122°55'0 0.4
2018-Jun-19 09:00N 49°11' W 122°55'0 0.0
2018-Jun-19 08:30N 49°11' W 122°55'0 0.7
2018-Jun-19 08:00N 49°11' W 122°55'0 0.6
2018-Jun-19 07:30N 49°11' W 122°55'0 0.1
2018-Jun-19 07:00N 49°11' W 122°55'0 0.1
2018-Jun-19 06:30N 49°11' W 122°55'0 0.5
2018-Jun-19 06:00N 49°11' W 122°55'0 0.1
2018-Jun-19 02:56N 49°11' W 122°55'0 0.4
2018-Jun-19 02:14N 49°11' W 122°55'0 0.4
2018-Jun-19 01:18N 49°11' W 122°55'0 0.6
2018-Jun-19 00:58N 49°11' W 122°55'0 0.5
2018-Jun-19 00:28N 49°11' W 122°55'0 0.1
2018-Jun-18 23:44N 49°11' W 122°55'0 0.3
2018-Jun-18 23:20N 49°11' W 122°55'0 0.2
2018-Jun-18 22:51N 49°11' W 122°55'0 0.0
2018-Jun-18 22:27N 49°11' W 122°55'0 0.4
2018-Jun-18 21:20N 49°11' W 122°55'0 0.9
2018-Jun-18 21:00N 49°11' W 122°55'0 0.3
2018-Jun-18 20:18N 49°11' W 122°55'0 0.0
2018-Jun-18 19:55N 49°11' W 122°55'0 0.2
2018-Jun-18 19:30N 49°11' W 122°55'0 0.2
2018-Jun-18 18:56N 49°11' W 122°55'0 0.2
2018-Jun-18 18:27N 49°11' W 122°55'0 0.3
2018-Jun-18 17:58N 49°11' W 122°55'0 0.3
2018-Jun-18 17:28N 49°11' W 122°55'0 0.0
2018-Jun-18 16:59N 49°11' W 122°55'0 0.7
2018-Jun-18 16:28N 49°11' W 122°55'0 0.6
2018-Jun-18 15:58N 49°11' W 122°55'0 0.1
2018-Jun-18 15:23N 49°11' W 122°55'0 1.1
2018-Jun-18 14:58N 49°11' W 122°55'0 0.1
2018-Jun-18 14:30N 49°11' W 122°55'0 0.7
2018-Jun-18 13:59N 49°11' W 122°55'0 0.3
2018-Jun-18 13:30N 49°11' W 122°55'0 0.1
2018-Jun-18 12:59N 49°11' W 122°55'0 0.5
2018-Jun-18 12:28N 49°11' W 122°55'0 0.2
2018-Jun-18 11:59N 49°11' W 122°55'0 0.2
2018-Jun-18 11:30N 49°11' W 122°55'0 0.1
2018-Jun-18 11:00N 49°11' W 122°55'0 0.2
2018-Jun-18 10:30N 49°11' W 122°55'0 0.3
2018-Jun-18 10:00N 49°11' W 122°55'0 0.7
2018-Jun-18 09:30N 49°11' W 122°55'0 0.2
2018-Jun-18 08:59N 49°11' W 122°55'0 0.2
2018-Jun-18 08:30N 49°11' W 122°55'0 0.7
2018-Jun-18 08:00N 49°11' W 122°55'0 0.1
2018-Jun-18 07:30N 49°11' W 122°55'0 0.2
2018-Jun-18 06:59N 49°11' W 122°55'0 0.4
2018-Jun-18 06:29N 49°11' W 122°55'0 0.3
2018-Jun-18 06:00N 49°11' W 122°55'0 0.7
2018-Jun-18 05:30N 49°11' W 122°55'0 0.6
2018-Jun-18 04:59N 49°11' W 122°55'0 0.3
2018-Jun-18 04:30N 49°11' W 122°55'1 1.2
2018-Jun-18 04:00N 49°11' W 122°55'0 0.3
2018-Jun-18 03:30N 49°11' W 122°55'0 0.4
2018-Jun-18 02:59N 49°11' W 122°55'0 0.4
2018-Jun-18 02:30N 49°11' W 122°55'0 0.9
2018-Jun-18 02:00N 49°11' W 122°55'0 0.2
2018-Jun-18 01:30N 49°11' W 122°55'0 0.2
2018-Jun-18 01:00N 49°11' W 122°55'0 0.5
2018-Jun-18 00:30N 49°11' W 122°55'0 0.2
2018-Jun-17 23:59N 49°11' W 122°55'0 0.2
2018-Jun-17 23:30N 49°11' W 122°55'0 0.5
2018-Jun-17 23:00N 49°11' W 122°55'0 0.0
2018-Jun-17 22:30N 49°11' W 122°55'0 0.6
2018-Jun-17 22:00N 49°11' W 122°55'0 0.5
2018-Jun-17 21:30N 49°11' W 122°55'0 1.0
2018-Jun-17 21:00N 49°11' W 122°55'0 0.8
2018-Jun-17 20:30N 49°11' W 122°55'1 1.1
2018-Jun-17 20:00N 49°11' W 122°55'0 0.6
2018-Jun-17 19:30N 49°11' W 122°55'0 0.1
2018-Jun-17 19:00N 49°11' W 122°55'0 0.6
2018-Jun-17 18:30N 49°11' W 122°55'0 0.4
2018-Jun-17 18:00N 49°11' W 122°55'0 0.4
2018-Jun-17 17:30N 49°11' W 122°55'0 0.7
2018-Jun-17 17:00N 49°11' W 122°55'0 0.2
2018-Jun-17 16:30N 49°11' W 122°55'0 0.2
2018-Jun-17 16:00N 49°11' W 122°55'0 0.3
2018-Jun-17 15:29N 49°11' W 122°55'0 0.3
2018-Jun-17 15:00N 49°11' W 122°55'0 0.2
2018-Jun-17 14:30N 49°11' W 122°55'0 0.8
2018-Jun-17 14:00N 49°11' W 122°55'0 0.8
2018-Jun-17 13:30N 49°11' W 122°55'0 1.0
2018-Jun-17 13:00N 49°11' W 122°55'0 0.8
2018-Jun-17 12:30N 49°11' W 122°55'0 0.4
2018-Jun-17 12:00N 49°11' W 122°55'0 0.4
2018-Jun-17 11:30N 49°11' W 122°55'0 0.2
2018-Jun-17 11:00N 49°11' W 122°55'0 0.2
2018-Jun-17 10:30N 49°11' W 122°55'0 0.9
2018-Jun-17 10:00N 49°11' W 122°55'1 1.1
2018-Jun-17 09:30N 49°11' W 122°55'1 1.2
2018-Jun-17 09:00N 49°11' W 122°55'1 1.1
2018-Jun-17 08:30N 49°11' W 122°55'1 1.0
2018-Jun-17 08:00N 49°11' W 122°55'0 0.6
2018-Jun-17 07:30N 49°11' W 122°55'0 0.0
2018-Jun-17 07:00N 49°11' W 122°55'0 0.6
2018-Jun-17 06:30N 49°11' W 122°55'0 0.3
2018-Jun-17 05:59N 49°11' W 122°55'0 0.5
2018-Jun-17 05:30N 49°11' W 122°55'0 0.8
2018-Jun-17 05:00N 49°11' W 122°55'0 0.5
2018-Jun-17 04:30N 49°11' W 122°55'0 0.2
2018-Jun-17 04:00N 49°11' W 122°55'0 0.0
2018-Jun-17 03:30N 49°11' W 122°55'2 4.4
2018-Jun-17 03:00N 49°09' W 122°57'0 0.8
2018-Jun-17 02:30N 49°09' W 122°57'0 0.0
2018-Jun-17 02:00N 49°09' W 122°57'0 0.0
2018-Jun-17 01:30N 49°09' W 122°57'0 0.1
2018-Jun-17 01:00N 49°09' W 122°58'0 0.1
2018-Jun-17 00:30N 49°09' W 122°58'0 0.0
2018-Jun-17 00:00N 49°09' W 122°58'0 0.1
2018-Jun-16 23:30N 49°09' W 122°58'0 0.2
2018-Jun-16 23:00N 49°09' W 122°58'0 0.2
2018-Jun-16 22:30N 49°09' W 122°58'0 0.3
2018-Jun-16 22:00N 49°09' W 122°58'0 0.0
2018-Jun-16 21:30N 49°09' W 122°58'0 0.0
2018-Jun-16 21:00N 49°09' W 122°58'0 0.0
2018-Jun-16 20:30N 49°09' W 122°58'0 0.0
2018-Jun-16 20:00N 49°09' W 122°58'0 0.0
2018-Jun-16 19:30N 49°09' W 122°58'0 0.0
2018-Jun-16 19:00N 49°09' W 122°58'0 0.0
2018-Jun-16 18:30N 49°09' W 122°58'0 0.0
2018-Jun-16 18:00N 49°09' W 122°58'0 0.0
2018-Jun-16 17:30N 49°09' W 122°58'0 0.0
2018-Jun-16 17:00N 49°09' W 122°58'0 0.0
2018-Jun-16 16:30N 49°09' W 122°58'0 0.0
2018-Jun-16 16:00N 49°09' W 122°58'0 0.0
2018-Jun-16 15:30N 49°09' W 122°58'0 0.0
2018-Jun-16 15:00N 49°09' W 122°58'0 0.0
2018-Jun-16 14:30N 49°09' W 122°58'0 0.0
2018-Jun-16 14:00N 49°09' W 122°58'0 0.0
2018-Jun-16 13:30N 49°09' W 122°58'0 0.0
2018-Jun-16 13:00N 49°09' W 122°58'0 0.0
2018-Jun-16 12:30N 49°09' W 122°58'0 0.0
2018-Jun-16 12:00N 49°09' W 122°58'0 0.0
2018-Jun-16 11:30N 49°09' W 122°58'0 0.0
2018-Jun-16 11:00N 49°09' W 122°58'0 0.0
2018-Jun-16 10:30N 49°09' W 122°58'0 0.0
2018-Jun-16 10:00N 49°09' W 122°58'0 0.0
2018-Jun-16 09:30N 49°09' W 122°58'0 0.0
2018-Jun-16 09:00N 49°09' W 122°58'0 0.0
2018-Jun-16 08:30N 49°09' W 122°58'0 0.0
2018-Jun-16 08:00N 49°09' W 122°58'0 0.0
2018-Jun-16 07:30N 49°09' W 122°58'0 0.0
2018-Jun-16 07:00N 49°09' W 122°58'0 0.0
2018-Jun-16 06:30N 49°09' W 122°58'0 0.0
2018-Jun-16 06:00N 49°09' W 122°58'0 0.0
2018-Jun-16 05:27N 49°09' W 122°58'0 0.0
2018-Jun-16 05:00N 49°09' W 122°58'0 0.0
2018-Jun-16 04:30N 49°09' W 122°58'0 0.0
2018-Jun-16 04:00N 49°09' W 122°58'0 0.0
2018-Jun-16 03:30N 49°09' W 122°58'0 0.0
2018-Jun-16 03:00N 49°09' W 122°58'0 0.0
2018-Jun-16 02:30N 49°09' W 122°58'0 0.0
2018-Jun-16 02:00N 49°09' W 122°58'0 0.0
2018-Jun-16 01:30N 49°09' W 122°58'0 0.0
2018-Jun-16 01:00N 49°09' W 122°58'0 0.0
2018-Jun-16 00:30N 49°09' W 122°58'0 0.0
2018-Jun-16 00:00N 49°09' W 122°58'0 0.0
2018-Jun-15 23:30N 49°09' W 122°58'0 0.0
2018-Jun-15 23:00N 49°09' W 122°58'0 0.0
2018-Jun-15 22:30N 49°09' W 122°58'0 0.0
2018-Jun-15 22:00N 49°09' W 122°58'0 0.0
2018-Jun-15 21:30N 49°09' W 122°58'0 0.0
2018-Jun-15 21:00N 49°09' W 122°58'0 0.0
2018-Jun-15 20:30N 49°09' W 122°58'0 0.0
2018-Jun-15 20:00N 49°09' W 122°58'0 0.0
2018-Jun-15 19:30N 49°09' W 122°58'0 0.0
2018-Jun-15 19:00N 49°09' W 122°58'0 0.0
2018-Jun-15 18:30N 49°09' W 122°58'0 0.0
2018-Jun-15 18:00N 49°09' W 122°58'0 0.0
2018-Jun-15 17:30N 49°09' W 122°58'0 0.0
2018-Jun-15 17:00N 49°09' W 122°58'0 0.0
2018-Jun-15 16:30N 49°09' W 122°58'0 0.0
2018-Jun-15 16:00N 49°09' W 122°58'0 0.0
2018-Jun-15 15:30N 49°09' W 122°58'0 0.0
2018-Jun-15 15:00N 49°09' W 122°58'0 0.0
2018-Jun-15 14:30N 49°09' W 122°58'0 0.0
2018-Jun-15 14:00N 49°09' W 122°58'0 0.0
2018-Jun-15 13:30N 49°09' W 122°58'0 0.0
2018-Jun-15 13:00N 49°09' W 122°58'0 0.0
2018-Jun-15 12:30N 49°09' W 122°58'0 0.0
2018-Jun-15 12:00N 49°09' W 122°58'0 0.0
2018-Jun-15 11:30N 49°09' W 122°58'0 0.0
2018-Jun-15 11:00N 49°09' W 122°58'0 0.0
2018-Jun-15 10:30N 49°09' W 122°58'0 0.0
2018-Jun-15 10:00N 49°09' W 122°58'0 0.0
2018-Jun-15 09:30N 49°09' W 122°58'0 0.0
2018-Jun-15 09:00N 49°09' W 122°58'0 0.0
2018-Jun-15 08:30N 49°09' W 122°58'0 0.0
2018-Jun-15 08:00N 49°09' W 122°58'0 0.0
2018-Jun-15 07:30N 49°09' W 122°58'0 0.0
2018-Jun-15 07:00N 49°09' W 122°58'0 0.0
2018-Jun-15 06:24N 49°09' W 122°58'0 0.0
2018-Jun-15 06:00N 49°09' W 122°58'  
Track history (hours):
 
Tides and Currents Weather Stations Pressure Air Temp Water Temp Dewpoint Dewpoint Depression Visibility Wind Speed Wind Dir Waves Ship Positions

Frpd 309

Last reported at 2018-Jun-25 05:59 UTC. Time now 2018-Jun-25 06:14 UTC.
Position N 49°11' W 122°55'.

Length 124 m; draft 6.9 m.

Type: Dredging. MMSI: 316029591.

Date/timePositionNaut miles runAvg speedWind from/ knotsBaromVisibWave heightAir tempDewpointWater temp
2018-Jun-25 05:59N 49°11' W 122°55'0 0.3
2018-Jun-25 05:31N 49°11' W 122°55'0 0.2
2018-Jun-25 05:01N 49°11' W 122°55'0 0.6
2018-Jun-25 04:30N 49°11' W 122°55'0 0.3
2018-Jun-25 04:00N 49°11' W 122°55'0 0.4
2018-Jun-25 03:30N 49°11' W 122°55'0 0.2
2018-Jun-25 03:00N 49°11' W 122°55'1 1.2
2018-Jun-25 02:30N 49°11' W 122°55'0 0.8
2018-Jun-25 02:00N 49°11' W 122°55'0 0.1
2018-Jun-25 01:31N 49°11' W 122°55'0 0.4
2018-Jun-25 01:00N 49°11' W 122°55'0 0.5
2018-Jun-25 00:30N 49°11' W 122°55'0 0.1
2018-Jun-25 00:00N 49°11' W 122°55'0 0.2
2018-Jun-24 23:31N 49°11' W 122°55'0 0.3
2018-Jun-24 23:00N 49°11' W 122°55'0 0.7
2018-Jun-24 22:29N 49°11' W 122°55'0 0.5
2018-Jun-24 22:00N 49°11' W 122°55'0 0.2
2018-Jun-24 21:30N 49°11' W 122°55'0 1.0
2018-Jun-24 21:01N 49°11' W 122°55'0 0.3
2018-Jun-24 20:30N 49°11' W 122°55'0 0.0
2018-Jun-24 20:00N 49°11' W 122°55'0 0.3
2018-Jun-24 19:30N 49°11' W 122°55'0 0.6
2018-Jun-24 19:00N 49°11' W 122°55'0 0.1
2018-Jun-24 18:30N 49°11' W 122°55'0 0.1
2018-Jun-24 18:00N 49°11' W 122°55'0 0.6
2018-Jun-24 17:30N 49°11' W 122°55'0 0.2
2018-Jun-24 17:00N 49°11' W 122°55'0 0.3
2018-Jun-24 16:30N 49°11' W 122°55'0 0.9
2018-Jun-24 16:00N 49°11' W 122°55'1 1.3
2018-Jun-24 15:31N 49°11' W 122°55'1 1.0
2018-Jun-24 15:00N 49°11' W 122°55'0 0.2
2018-Jun-24 14:30N 49°11' W 122°55'0 0.7
2018-Jun-24 14:01N 49°11' W 122°55'0 0.2
2018-Jun-24 13:30N 49°11' W 122°55'0 0.5
2018-Jun-24 13:00N 49°11' W 122°55'0 0.3
2018-Jun-24 12:30N 49°11' W 122°55'0 0.9
2018-Jun-24 12:00N 49°11' W 122°55'0 0.5
2018-Jun-24 11:30N 49°11' W 122°55'4 8.2
2018-Jun-24 11:00N 49°09' W 123°01'1 2.7
2018-Jun-24 10:29N 49°09' W 123°03'0 0.0
2018-Jun-24 10:00N 49°09' W 123°03'0 0.0
2018-Jun-24 09:30N 49°09' W 123°03'0 0.0
2018-Jun-24 09:00N 49°09' W 123°03'1 1.7
2018-Jun-24 08:31N 49°08' W 123°04'5 9.3
2018-Jun-24 07:58N 49°07' W 123°11'0 0.6
2018-Jun-24 07:30N 49°07' W 123°12'0 0.2
2018-Jun-24 07:00N 49°07' W 123°12'4 9.0
2018-Jun-24 06:30N 49°07' W 123°05'2 3.9
2018-Jun-24 06:00N 49°09' W 123°03'0 0.0
2018-Jun-24 05:30N 49°09' W 123°03'0 0.0
2018-Jun-24 05:00N 49°09' W 123°03'0 0.0
2018-Jun-24 04:30N 49°09' W 123°03'0 0.0
2018-Jun-24 04:00N 49°09' W 123°03'1 2.4
2018-Jun-24 03:30N 49°08' W 123°04'4 8.6
2018-Jun-24 03:00N 49°07' W 123°11'1 1.4
2018-Jun-24 02:30N 49°07' W 123°12'0 0.2
2018-Jun-24 02:00N 49°07' W 123°11'1 2.2
2018-Jun-24 01:30N 49°07' W 123°10'510.1
2018-Jun-24 01:00N 49°09' W 123°03'0 0.1
2018-Jun-24 00:30N 49°09' W 123°03'0 0.0
2018-Jun-24 00:00N 49°09' W 123°03'0 0.0
2018-Jun-23 23:31N 49°09' W 123°03'1 1.6
2018-Jun-23 22:58N 49°08' W 123°04'4 9.3
2018-Jun-23 22:29N 49°07' W 123°10'1 1.7
2018-Jun-23 22:00N 49°07' W 123°11'1 1.7
2018-Jun-23 21:27N 49°07' W 123°10'511.0
2018-Jun-23 21:00N 49°08' W 123°03'0 0.6
2018-Jun-23 20:31N 49°09' W 123°03'0 0.0
2018-Jun-23 20:00N 49°09' W 123°03'0 0.0
2018-Jun-23 19:30N 49°09' W 123°03'0 0.3
2018-Jun-23 19:00N 49°09' W 123°03'4 7.9
2018-Jun-23 18:30N 49°06' W 123°08'2 4.1
2018-Jun-23 17:59N 49°07' W 123°11'0 1.0
2018-Jun-23 17:30N 49°07' W 123°11'1 1.3
2018-Jun-23 17:00N 49°07' W 123°12'3 5.1
2018-Jun-23 16:28N 49°06' W 123°08'4 8.1
2018-Jun-23 16:00N 49°09' W 123°03'0 0.1
2018-Jun-23 15:28N 49°09' W 123°03'0 0.0
2018-Jun-23 15:00N 49°09' W 123°03'0 0.0
2018-Jun-23 14:30N 49°09' W 123°03'0 0.4
2018-Jun-23 14:01N 49°08' W 123°03'4 7.7
2018-Jun-23 13:30N 49°06' W 123°08'2 3.7
2018-Jun-23 13:01N 49°07' W 123°11'0 0.3
2018-Jun-23 12:29N 49°07' W 123°11'1 1.7
2018-Jun-23 12:00N 49°07' W 123°12'510.3
2018-Jun-23 11:30N 49°08' W 123°04'1 2.6
2018-Jun-23 11:00N 49°09' W 123°03'0 0.0
2018-Jun-23 10:30N 49°09' W 123°03'0 0.0
2018-Jun-23 10:00N 49°09' W 123°03'0 0.0
2018-Jun-23 09:30N 49°09' W 123°03'3 6.5
2018-Jun-23 08:59N 49°07' W 123°07'3 6.0
2018-Jun-23 08:29N 49°07' W 123°12'0 0.7
2018-Jun-23 07:59N 49°07' W 123°11'4 7.9
2018-Jun-23 07:30N 49°07' W 123°05'2 4.5
2018-Jun-23 07:00N 49°09' W 123°03'0 0.0
2018-Jun-23 06:30N 49°09' W 123°03'0 0.0
2018-Jun-23 06:00N 49°09' W 123°03'0 0.0
2018-Jun-23 05:30N 49°09' W 123°03'0 0.0
2018-Jun-23 05:00N 49°09' W 123°03'4 7.5
2018-Jun-23 04:31N 49°07' W 123°08'2 4.8
2018-Jun-23 04:00N 49°07' W 123°11'0 0.4
2018-Jun-23 03:30N 49°07' W 123°11'1 1.7
2018-Jun-23 03:00N 49°07' W 123°12'510.5
2018-Jun-23 02:30N 49°08' W 123°04'1 2.2
2018-Jun-23 02:00N 49°09' W 123°03'0 0.0
2018-Jun-23 01:30N 49°09' W 123°03'0 0.0
2018-Jun-23 01:00N 49°09' W 123°03'0 0.0
2018-Jun-23 00:30N 49°09' W 123°03'1 1.2
2018-Jun-23 00:00N 49°08' W 123°03'4 9.1
2018-Jun-22 23:30N 49°07' W 123°10'1 2.3
2018-Jun-22 22:59N 49°07' W 123°12'0 0.1
2018-Jun-22 22:29N 49°07' W 123°12'4 8.3
2018-Jun-22 22:00N 49°07' W 123°05'2 4.6
2018-Jun-22 21:30N 49°09' W 123°03'0 0.0
2018-Jun-22 21:00N 49°09' W 123°03'0 0.0
2018-Jun-22 20:28N 49°09' W 123°03'0 0.0
2018-Jun-22 20:00N 49°09' W 123°03'1 1.3
2018-Jun-22 19:30N 49°08' W 123°04'5 8.7
2018-Jun-22 18:57N 49°07' W 123°11'1 1.5
2018-Jun-22 18:30N 49°07' W 123°12'0 0.7
2018-Jun-22 17:59N 49°07' W 123°11'1 1.8
2018-Jun-22 17:30N 49°07' W 123°12'510.1
2018-Jun-22 17:00N 49°07' W 123°05'2 3.2
2018-Jun-22 16:30N 49°09' W 123°03'0 0.0
2018-Jun-22 16:00N 49°09' W 123°03'0 0.0
2018-Jun-22 15:30N 49°09' W 123°03'0 0.0
2018-Jun-22 14:59N 49°09' W 123°03'2 4.7
2018-Jun-22 14:30N 49°07' W 123°05'3 7.1
2018-Jun-22 14:00N 49°07' W 123°11'1 1.5
2018-Jun-22 13:29N 49°07' W 123°12'0 1.0
2018-Jun-22 13:00N 49°07' W 123°11'2 3.9
2018-Jun-22 12:29N 49°06' W 123°08'4 8.5
2018-Jun-22 12:00N 49°09' W 123°03'0 0.0
2018-Jun-22 11:30N 49°09' W 123°03'0 0.0
2018-Jun-22 11:01N 49°09' W 123°03'0 0.0
2018-Jun-22 10:30N 49°09' W 123°03'3 6.3
2018-Jun-22 10:00N 49°07' W 123°07'3 5.8
2018-Jun-22 09:30N 49°07' W 123°11'0 0.7
2018-Jun-22 08:59N 49°07' W 123°12'611.3
2018-Jun-22 08:29N 49°08' W 123°03'0 0.7
2018-Jun-22 08:00N 49°09' W 123°03'0 0.0
2018-Jun-22 07:30N 49°09' W 123°03'0 0.0
2018-Jun-22 07:00N 49°09' W 123°03'0 0.0
2018-Jun-22 06:30N 49°09' W 123°03'2 4.7
2018-Jun-22 06:00N 49°07' W 123°05'4 7.1
2018-Jun-22 05:30N 49°07' W 123°11'0 0.9
2018-Jun-22 05:00N 49°07' W 123°12'3 6.5
2018-Jun-22 04:30N 49°07' W 123°07'3 6.3
2018-Jun-22 04:00N 49°09' W 123°03'0 0.0
2018-Jun-22 03:28N 49°09' W 123°03'0 0.0
2018-Jun-22 03:00N 49°09' W 123°03'0 0.0
2018-Jun-22 02:30N 49°09' W 123°03'0 0.5
2018-Jun-22 02:00N 49°08' W 123°03'4 8.3
2018-Jun-22 01:30N 49°07' W 123°09'2 3.1
2018-Jun-22 01:00N 49°07' W 123°11'0 0.3
2018-Jun-22 00:30N 49°07' W 123°11'0 0.2
2018-Jun-22 00:00N 49°07' W 123°11'611.0
2018-Jun-21 23:30N 49°09' W 123°03'0 0.2
2018-Jun-21 23:01N 49°09' W 123°03'0 0.0
2018-Jun-21 22:31N 49°09' W 123°03'0 0.1
2018-Jun-21 22:00N 49°09' W 123°03'1 2.7
2018-Jun-21 21:30N 49°08' W 123°04'4 8.6
2018-Jun-21 21:00N 49°07' W 123°11'0 0.2
2018-Jun-21 20:30N 49°07' W 123°11'1 1.2
2018-Jun-21 20:00N 49°07' W 123°12'4 9.2
2018-Jun-21 19:31N 49°07' W 123°05'2 3.5
2018-Jun-21 19:00N 49°09' W 123°03'0 0.0
2018-Jun-21 18:31N 49°09' W 123°03'0 0.0
2018-Jun-21 18:00N 49°09' W 123°03'0 0.0
2018-Jun-21 17:30N 49°09' W 123°03'2 4.8
2018-Jun-21 17:00N 49°07' W 123°06'4 6.9
2018-Jun-21 16:30N 49°07' W 123°11'0 0.1
2018-Jun-21 15:58N 49°07' W 123°11'0 0.7
2018-Jun-21 15:30N 49°07' W 123°12'4 7.2
2018-Jun-21 14:59N 49°07' W 123°06'3 5.5
2018-Jun-21 14:30N 49°09' W 123°03'0 0.0
2018-Jun-21 14:00N 49°09' W 123°03'0 0.0
2018-Jun-21 13:30N 49°09' W 123°03'0 0.0
2018-Jun-21 13:00N 49°09' W 123°03'1 2.9
2018-Jun-21 12:30N 49°07' W 123°04'4 7.8
2018-Jun-21 12:00N 49°07' W 123°10'1 1.7
2018-Jun-21 11:30N 49°07' W 123°11'0 0.2
2018-Jun-21 11:00N 49°07' W 123°11'3 6.0
2018-Jun-21 10:30N 49°07' W 123°07'3 6.2
2018-Jun-21 10:00N 49°09' W 123°03'0 0.0
2018-Jun-21 09:29N 49°09' W 123°03'0 0.0
2018-Jun-21 09:00N 49°09' W 123°03'0 0.0
2018-Jun-21 08:30N 49°09' W 123°03'3 5.4
2018-Jun-21 08:00N 49°07' W 123°06'4 6.9
2018-Jun-21 07:29N 49°07' W 123°11'1 1.3
2018-Jun-21 07:00N 49°07' W 123°11'5 9.3
2018-Jun-21 06:30N 49°08' W 123°04'1 1.3
2018-Jun-21 05:59N 49°09' W 123°03'0 0.0
2018-Jun-21 05:29N 49°09' W 123°03'0 0.0
2018-Jun-21 05:00N 49°09' W 123°03'0 0.0
2018-Jun-21 04:30N 49°09' W 123°03'0 0.4
2018-Jun-21 04:00N 49°08' W 123°03'4 8.6
2018-Jun-21 03:29N 49°07' W 123°09'1 2.8
2018-Jun-21 03:00N 49°07' W 123°11'0 0.5
2018-Jun-21 02:30N 49°07' W 123°11'1 1.8
2018-Jun-21 02:00N 49°07' W 123°12'510.6
2018-Jun-21 01:30N 49°08' W 123°04'1 1.9
2018-Jun-21 01:00N 49°09' W 123°03'0 0.0
2018-Jun-21 00:30N 49°09' W 123°03'0 0.1
2018-Jun-20 23:59N 49°09' W 123°03'0 0.1
2018-Jun-20 23:30N 49°09' W 123°03'2 4.3
2018-Jun-20 23:00N 49°07' W 123°05'4 7.2
2018-Jun-20 22:30N 49°07' W 123°11'0 0.9
2018-Jun-20 22:00N 49°07' W 123°11'0 0.5
2018-Jun-20 21:29N 49°07' W 123°12'4 7.6
2018-Jun-20 21:00N 49°07' W 123°06'3 5.4
2018-Jun-20 20:30N 49°09' W 123°03'0 0.1
2018-Jun-20 20:00N 49°09' W 123°03'0 0.0
2018-Jun-20 19:30N 49°09' W 123°03'0 0.0
2018-Jun-20 19:00N 49°09' W 123°03'0 0.0
2018-Jun-20 18:30N 49°09' W 123°03'4 8.2
2018-Jun-20 18:00N 49°06' W 123°08'2 4.0
2018-Jun-20 17:30N 49°07' W 123°11'0 0.0
2018-Jun-20 16:59N 49°07' W 123°11'611.6
2018-Jun-20 16:29N 49°09' W 123°03'0 0.3
2018-Jun-20 16:00N 49°09' W 123°03'0 0.1
2018-Jun-20 15:29N 49°09' W 123°03'0 0.0
2018-Jun-20 15:00N 49°09' W 123°03'0 0.0
2018-Jun-20 14:30N 49°09' W 123°03'0 0.0
2018-Jun-20 14:00N 49°09' W 123°03'2 4.1
2018-Jun-20 13:30N 49°07' W 123°05'4 7.4
2018-Jun-20 13:00N 49°07' W 123°11'0 0.9
2018-Jun-20 12:30N 49°07' W 123°11'0 0.1
2018-Jun-20 12:00N 49°07' W 123°11'1 1.6
2018-Jun-20 11:30N 49°07' W 123°10'510.0
2018-Jun-20 11:00N 49°09' W 123°03'0 0.0
2018-Jun-20 10:30N 49°09' W 123°03'0 0.0
2018-Jun-20 10:00N 49°09' W 123°03'0 0.0
2018-Jun-20 09:30N 49°09' W 123°03'0 0.8
2018-Jun-20 09:00N 49°08' W 123°03'5 9.2
2018-Jun-20 08:29N 49°07' W 123°10'1 1.4
2018-Jun-20 08:00N 49°07' W 123°11'0 0.8
2018-Jun-20 07:30N 49°07' W 123°12'4 7.6
2018-Jun-20 07:00N 49°07' W 123°06'2 4.6
2018-Jun-20 06:27N 49°09' W 123°03'0 0.0
2018-Jun-20 06:00N 49°09' W 123°03'0 0.0
2018-Jun-20 05:30N 49°09' W 123°03'0 0.0
2018-Jun-20 05:00N 49°09' W 123°03'0 0.2
2018-Jun-20 04:30N 49°09' W 123°03'5 9.1
2018-Jun-20 04:00N 49°07' W 123°09'1 2.9
2018-Jun-20 03:30N 49°07' W 123°11'1 2.4
2018-Jun-20 03:00N 49°07' W 123°10'5 9.9
2018-Jun-20 02:30N 49°09' W 123°03'0 0.2
2018-Jun-20 02:00N 49°09' W 123°03'0 0.0
2018-Jun-20 01:30N 49°09' W 123°03'0 0.0
2018-Jun-20 01:00N 49°09' W 123°03'0 0.0
2018-Jun-20 00:30N 49°09' W 123°03'0 0.1
2018-Jun-20 00:00N 49°09' W 123°03'4 6.8
2018-Jun-19 23:29N 49°07' W 123°07'2 4.9
2018-Jun-19 23:00N 49°07' W 123°11'0 0.4
2018-Jun-19 22:29N 49°07' W 123°11'1 1.1
2018-Jun-19 22:00N 49°07' W 123°11'1 1.7
2018-Jun-19 21:30N 49°07' W 123°10'4 8.6
2018-Jun-19 21:00N 49°08' W 123°04'1 1.3
2018-Jun-19 20:30N 49°08' W 123°03'0 0.5
2018-Jun-19 20:00N 49°09' W 123°03'0 0.8
2018-Jun-19 19:30N 49°08' W 123°03'0 1.0
2018-Jun-19 19:00N 49°09' W 123°03'0 0.0
2018-Jun-19 18:30N 49°09' W 123°03'0 0.0
2018-Jun-19 18:00N 49°09' W 123°03'0 0.0
2018-Jun-19 17:30N 49°09' W 123°03'0 0.0
2018-Jun-19 17:00N 49°09' W 123°03'0 0.2
2018-Jun-19 16:30N 49°09' W 123°03'510.4
2018-Jun-19 16:00N 49°10' W 122°56'1 1.4
2018-Jun-19 15:30N 49°11' W 122°55'0 0.2
2018-Jun-19 15:00N 49°11' W 122°55'0 0.6
2018-Jun-19 14:30N 49°11' W 122°55'0 0.6
2018-Jun-19 14:00N 49°11' W 122°55'0 0.0
2018-Jun-19 13:30N 49°11' W 122°55'0 0.2
2018-Jun-19 13:00N 49°11' W 122°55'0 0.2
2018-Jun-19 12:30N 49°11' W 122°55'0 0.1
2018-Jun-19 12:00N 49°11' W 122°55'0 0.2
2018-Jun-19 11:30N 49°11' W 122°55'0 0.6
2018-Jun-19 11:00N 49°12' W 122°55'0 0.7
2018-Jun-19 10:30N 49°11' W 122°55'0 0.6
2018-Jun-19 10:00N 49°11' W 122°55'0 0.7
2018-Jun-19 09:30N 49°11' W 122°55'0 0.4
2018-Jun-19 09:00N 49°11' W 122°55'0 0.0
2018-Jun-19 08:30N 49°11' W 122°55'0 0.7
2018-Jun-19 08:00N 49°11' W 122°55'0 0.6
2018-Jun-19 07:30N 49°11' W 122°55'0 0.1
2018-Jun-19 07:00N 49°11' W 122°55'0 0.1
2018-Jun-19 06:30N 49°11' W 122°55'0 0.5
2018-Jun-19 06:00N 49°11' W 122°55'0 0.1
2018-Jun-19 02:56N 49°11' W 122°55'0 0.4
2018-Jun-19 02:14N 49°11' W 122°55'0 0.4
2018-Jun-19 01:18N 49°11' W 122°55'0 0.6
2018-Jun-19 00:58N 49°11' W 122°55'0 0.5
2018-Jun-19 00:28N 49°11' W 122°55'0 0.1
2018-Jun-18 23:44N 49°11' W 122°55'0 0.3
2018-Jun-18 23:20N 49°11' W 122°55'0 0.2
2018-Jun-18 22:51N 49°11' W 122°55'0 0.0
2018-Jun-18 22:27N 49°11' W 122°55'0 0.4
2018-Jun-18 21:20N 49°11' W 122°55'0 0.9
2018-Jun-18 21:00N 49°11' W 122°55'0 0.3
2018-Jun-18 20:18N 49°11' W 122°55'0 0.0
2018-Jun-18 19:55N 49°11' W 122°55'0 0.2
2018-Jun-18 19:30N 49°11' W 122°55'0 0.2
2018-Jun-18 18:56N 49°11' W 122°55'0 0.2
2018-Jun-18 18:27N 49°11' W 122°55'0 0.3
2018-Jun-18 17:58N 49°11' W 122°55'0 0.3
2018-Jun-18 17:28N 49°11' W 122°55'0 0.0
2018-Jun-18 16:59N 49°11' W 122°55'0 0.7
2018-Jun-18 16:28N 49°11' W 122°55'0 0.6
2018-Jun-18 15:58N 49°11' W 122°55'0 0.1
2018-Jun-18 15:23N 49°11' W 122°55'0 1.1
2018-Jun-18 14:58N 49°11' W 122°55'0 0.1
2018-Jun-18 14:30N 49°11' W 122°55'0 0.7
2018-Jun-18 13:59N 49°11' W 122°55'0 0.3
2018-Jun-18 13:30N 49°11' W 122°55'0 0.1
2018-Jun-18 12:59N 49°11' W 122°55'0 0.5
2018-Jun-18 12:28N 49°11' W 122°55'0 0.2
2018-Jun-18 11:59N 49°11' W 122°55'0 0.2
2018-Jun-18 11:30N 49°11' W 122°55'0 0.1
2018-Jun-18 11:00N 49°11' W 122°55'0 0.2
2018-Jun-18 10:30N 49°11' W 122°55'0 0.3
2018-Jun-18 10:00N 49°11' W 122°55'0 0.7
2018-Jun-18 09:30N 49°11' W 122°55'0 0.2
2018-Jun-18 08:59N 49°11' W 122°55'0 0.2
2018-Jun-18 08:30N 49°11' W 122°55'0 0.7
2018-Jun-18 08:00N 49°11' W 122°55'0 0.1
2018-Jun-18 07:30N 49°11' W 122°55'0 0.2
2018-Jun-18 06:59N 49°11' W 122°55'0 0.4
2018-Jun-18 06:29N 49°11' W 122°55'0 0.3
2018-Jun-18 06:00N 49°11' W 122°55'0 0.7
2018-Jun-18 05:30N 49°11' W 122°55'0 0.6
2018-Jun-18 04:59N 49°11' W 122°55'0 0.3
2018-Jun-18 04:30N 49°11' W 122°55'1 1.2
2018-Jun-18 04:00N 49°11' W 122°55'0 0.3
2018-Jun-18 03:30N 49°11' W 122°55'0 0.4
2018-Jun-18 02:59N 49°11' W 122°55'0 0.4
2018-Jun-18 02:30N 49°11' W 122°55'0 0.9
2018-Jun-18 02:00N 49°11' W 122°55'0 0.2
2018-Jun-18 01:30N 49°11' W 122°55'0 0.2
2018-Jun-18 01:00N 49°11' W 122°55'0 0.5
2018-Jun-18 00:30N 49°11' W 122°55'0 0.2
2018-Jun-17 23:59N 49°11' W 122°55'0 0.2
2018-Jun-17 23:30N 49°11' W 122°55'0 0.5
2018-Jun-17 23:00N 49°11' W 122°55'0 0.0
2018-Jun-17 22:30N 49°11' W 122°55'0 0.6
2018-Jun-17 22:00N 49°11' W 122°55'0 0.5
2018-Jun-17 21:30N 49°11' W 122°55'0 1.0
2018-Jun-17 21:00N 49°11' W 122°55'0 0.8
2018-Jun-17 20:30N 49°11' W 122°55'1 1.1
2018-Jun-17 20:00N 49°11' W 122°55'0 0.6
2018-Jun-17 19:30N 49°11' W 122°55'0 0.1
2018-Jun-17 19:00N 49°11' W 122°55'0 0.6
2018-Jun-17 18:30N 49°11' W 122°55'0 0.4
2018-Jun-17 18:00N 49°11' W 122°55'0 0.4
2018-Jun-17 17:30N 49°11' W 122°55'0 0.7
2018-Jun-17 17:00N 49°11' W 122°55'0 0.2
2018-Jun-17 16:30N 49°11' W 122°55'0 0.2
2018-Jun-17 16:00N 49°11' W 122°55'0 0.3
2018-Jun-17 15:29N 49°11' W 122°55'0 0.3
2018-Jun-17 15:00N 49°11' W 122°55'0 0.2
2018-Jun-17 14:30N 49°11' W 122°55'0 0.8
2018-Jun-17 14:00N 49°11' W 122°55'0 0.8
2018-Jun-17 13:30N 49°11' W 122°55'0 1.0
2018-Jun-17 13:00N 49°11' W 122°55'0 0.8
2018-Jun-17 12:30N 49°11' W 122°55'0 0.4
2018-Jun-17 12:00N 49°11' W 122°55'0 0.4
2018-Jun-17 11:30N 49°11' W 122°55'0 0.2
2018-Jun-17 11:00N 49°11' W 122°55'0 0.2
2018-Jun-17 10:30N 49°11' W 122°55'0 0.9
2018-Jun-17 10:00N 49°11' W 122°55'1 1.1
2018-Jun-17 09:30N 49°11' W 122°55'1 1.2
2018-Jun-17 09:00N 49°11' W 122°55'1 1.1
2018-Jun-17 08:30N 49°11' W 122°55'1 1.0
2018-Jun-17 08:00N 49°11' W 122°55'0 0.6
2018-Jun-17 07:30N 49°11' W 122°55'0 0.0
2018-Jun-17 07:00N 49°11' W 122°55'0 0.6
2018-Jun-17 06:30N 49°11' W 122°55'0 0.3
2018-Jun-17 05:59N 49°11' W 122°55'0 0.5
2018-Jun-17 05:30N 49°11' W 122°55'0 0.8
2018-Jun-17 05:00N 49°11' W 122°55'0 0.5
2018-Jun-17 04:30N 49°11' W 122°55'0 0.2
2018-Jun-17 04:00N 49°11' W 122°55'0 0.0
2018-Jun-17 03:30N 49°11' W 122°55'2 4.4
2018-Jun-17 03:00N 49°09' W 122°57'0 0.8
2018-Jun-17 02:30N 49°09' W 122°57'0 0.0
2018-Jun-17 02:00N 49°09' W 122°57'0 0.0
2018-Jun-17 01:30N 49°09' W 122°57'0 0.1
2018-Jun-17 01:00N 49°09' W 122°58'0 0.1
2018-Jun-17 00:30N 49°09' W 122°58'0 0.0
2018-Jun-17 00:00N 49°09' W 122°58'0 0.1
2018-Jun-16 23:30N 49°09' W 122°58'0 0.2
2018-Jun-16 23:00N 49°09' W 122°58'0 0.2
2018-Jun-16 22:30N 49°09' W 122°58'0 0.3
2018-Jun-16 22:00N 49°09' W 122°58'0 0.0
2018-Jun-16 21:30N 49°09' W 122°58'0 0.0
2018-Jun-16 21:00N 49°09' W 122°58'0 0.0
2018-Jun-16 20:30N 49°09' W 122°58'0 0.0
2018-Jun-16 20:00N 49°09' W 122°58'0 0.0
2018-Jun-16 19:30N 49°09' W 122°58'0 0.0
2018-Jun-16 19:00N 49°09' W 122°58'0 0.0
2018-Jun-16 18:30N 49°09' W 122°58'0 0.0
2018-Jun-16 18:00N 49°09' W 122°58'0 0.0
2018-Jun-16 17:30N 49°09' W 122°58'0 0.0
2018-Jun-16 17:00N 49°09' W 122°58'0 0.0
2018-Jun-16 16:30N 49°09' W 122°58'0 0.0
2018-Jun-16 16:00N 49°09' W 122°58'0 0.0
2018-Jun-16 15:30N 49°09' W 122°58'0 0.0
2018-Jun-16 15:00N 49°09' W 122°58'0 0.0
2018-Jun-16 14:30N 49°09' W 122°58'0 0.0
2018-Jun-16 14:00N 49°09' W 122°58'0 0.0
2018-Jun-16 13:30N 49°09' W 122°58'0 0.0
2018-Jun-16 13:00N 49°09' W 122°58'0 0.0
2018-Jun-16 12:30N 49°09' W 122°58'0 0.0
2018-Jun-16 12:00N 49°09' W 122°58'0 0.0
2018-Jun-16 11:30N 49°09' W 122°58'0 0.0
2018-Jun-16 11:00N 49°09' W 122°58'0 0.0
2018-Jun-16 10:30N 49°09' W 122°58'0 0.0
2018-Jun-16 10:00N 49°09' W 122°58'0 0.0
2018-Jun-16 09:30N 49°09' W 122°58'0 0.0
2018-Jun-16 09:00N 49°09' W 122°58'0 0.0
2018-Jun-16 08:30N 49°09' W 122°58'0 0.0
2018-Jun-16 08:00N 49°09' W 122°58'0 0.0
2018-Jun-16 07:30N 49°09' W 122°58'0 0.0
2018-Jun-16 07:00N 49°09' W 122°58'0 0.0
2018-Jun-16 06:30N 49°09' W 122°58'0 0.0
2018-Jun-16 06:00N 49°09' W 122°58'0 0.0
2018-Jun-16 05:27N 49°09' W 122°58'0 0.0
2018-Jun-16 05:00N 49°09' W 122°58'0 0.0
2018-Jun-16 04:30N 49°09' W 122°58'0 0.0
2018-Jun-16 04:00N 49°09' W 122°58'0 0.0
2018-Jun-16 03:30N 49°09' W 122°58'0 0.0
2018-Jun-16 03:00N 49°09' W 122°58'0 0.0
2018-Jun-16 02:30N 49°09' W 122°58'0 0.0
2018-Jun-16 02:00N 49°09' W 122°58'0 0.0
2018-Jun-16 01:30N 49°09' W 122°58'0 0.0
2018-Jun-16 01:00N 49°09' W 122°58'0 0.0
2018-Jun-16 00:30N 49°09' W 122°58'0 0.0
2018-Jun-16 00:00N 49°09' W 122°58'0 0.0
2018-Jun-15 23:30N 49°09' W 122°58'0 0.0
2018-Jun-15 23:00N 49°09' W 122°58'0 0.0
2018-Jun-15 22:30N 49°09' W 122°58'0 0.0
2018-Jun-15 22:00N 49°09' W 122°58'0 0.0
2018-Jun-15 21:30N 49°09' W 122°58'0 0.0
2018-Jun-15 21:00N 49°09' W 122°58'0 0.0
2018-Jun-15 20:30N 49°09' W 122°58'0 0.0
2018-Jun-15 20:00N 49°09' W 122°58'0 0.0
2018-Jun-15 19:30N 49°09' W 122°58'0 0.0
2018-Jun-15 19:00N 49°09' W 122°58'0 0.0
2018-Jun-15 18:30N 49°09' W 122°58'0 0.0
2018-Jun-15 18:00N 49°09' W 122°58'0 0.0
2018-Jun-15 17:30N 49°09' W 122°58'0 0.0
2018-Jun-15 17:00N 49°09' W 122°58'0 0.0
2018-Jun-15 16:30N 49°09' W 122°58'0 0.0
2018-Jun-15 16:00N 49°09' W 122°58'0 0.0
2018-Jun-15 15:30N 49°09' W 122°58'0 0.0
2018-Jun-15 15:00N 49°09' W 122°58'0 0.0
2018-Jun-15 14:30N 49°09' W 122°58'0 0.0
2018-Jun-15 14:00N 49°09' W 122°58'0 0.0
2018-Jun-15 13:30N 49°09' W 122°58'0 0.0
2018-Jun-15 13:00N 49°09' W 122°58'0 0.0
2018-Jun-15 12:30N 49°09' W 122°58'0 0.0
2018-Jun-15 12:00N 49°09' W 122°58'0 0.0
2018-Jun-15 11:30N 49°09' W 122°58'0 0.0
2018-Jun-15 11:00N 49°09' W 122°58'0 0.0
2018-Jun-15 10:30N 49°09' W 122°58'0 0.0
2018-Jun-15 10:00N 49°09' W 122°58'0 0.0
2018-Jun-15 09:30N 49°09' W 122°58'0 0.0
2018-Jun-15 09:00N 49°09' W 122°58'0 0.0
2018-Jun-15 08:30N 49°09' W 122°58'0 0.0
2018-Jun-15 08:00N 49°09' W 122°58'0 0.0
2018-Jun-15 07:30N 49°09' W 122°58'0 0.0
2018-Jun-15 07:00N 49°09' W 122°58'0 0.0
2018-Jun-15 06:24N 49°09' W 122°58'0 0.0
2018-Jun-15 06:00N 49°09' W 122°58'  

Dump ship's entire track history